sensor_id;sensor_type;location;lat;lon;timestamp;P1;durP1;ratioP1;P2;durP2;ratioP2
5821;SDS011;2937;48.562;8.022;2024-03-02T00:04:30;3.47;;;2.00;;
5821;SDS011;2937;48.562;8.022;2024-03-02T00:09:24;4.00;;;3.13;;
5821;SDS011;2937;48.562;8.022;2024-03-02T00:14:17;3.27;;;2.53;;
5821;SDS011;2937;48.562;8.022;2024-03-02T00:19:09;2.43;;;2.10;;
5821;SDS011;2937;48.562;8.022;2024-03-02T00:24:04;1.70;;;1.60;;
5821;SDS011;2937;48.562;8.022;2024-03-02T00:29:00;2.10;;;1.90;;
5821;SDS011;2937;48.562;8.022;2024-03-02T00:33:53;4.43;;;2.20;;
5821;SDS011;2937;48.562;8.022;2024-03-02T00:38:46;2.17;;;1.90;;
5821;SDS011;2937;48.562;8.022;2024-03-02T00:43:41;2.80;;;2.50;;
5821;SDS011;2937;48.562;8.022;2024-03-02T00:48:39;4.03;;;3.13;;
5821;SDS011;2937;48.562;8.022;2024-03-02T00:53:34;3.20;;;2.33;;
5821;SDS011;2937;48.562;8.022;2024-03-02T00:58:26;6.00;;;3.90;;
5821;SDS011;2937;48.562;8.022;2024-03-02T01:03:19;4.03;;;3.37;;
5821;SDS011;2937;48.562;8.022;2024-03-02T01:08:13;3.80;;;2.80;;
5821;SDS011;2937;48.562;8.022;2024-03-02T01:13:06;3.93;;;2.70;;
5821;SDS011;2937;48.562;8.022;2024-03-02T01:17:58;3.47;;;2.57;;
5821;SDS011;2937;48.562;8.022;2024-03-02T01:22:51;2.37;;;2.00;;
5821;SDS011;2937;48.562;8.022;2024-03-02T01:27:45;1.87;;;1.77;;
5821;SDS011;2937;48.562;8.022;2024-03-02T01:32:41;2.20;;;2.00;;
5821;SDS011;2937;48.562;8.022;2024-03-02T01:37:33;4.10;;;2.33;;
5821;SDS011;2937;48.562;8.022;2024-03-02T01:42:26;2.20;;;2.00;;
5821;SDS011;2937;48.562;8.022;2024-03-02T01:47:20;2.67;;;2.00;;
5821;SDS011;2937;48.562;8.022;2024-03-02T01:52:12;2.53;;;2.00;;
5821;SDS011;2937;48.562;8.022;2024-03-02T01:57:05;2.20;;;2.00;;
5821;SDS011;2937;48.562;8.022;2024-03-02T02:01:58;3.50;;;1.80;;
5821;SDS011;2937;48.562;8.022;2024-03-02T02:06:52;3.50;;;2.90;;
5821;SDS011;2937;48.562;8.022;2024-03-02T02:11:44;5.77;;;3.80;;
5821;SDS011;2937;48.562;8.022;2024-03-02T02:16:37;6.13;;;3.70;;
5821;SDS011;2937;48.562;8.022;2024-03-02T02:21:31;4.80;;;3.30;;
5821;SDS011;2937;48.562;8.022;2024-03-02T02:26:23;4.50;;;3.00;;
5821;SDS011;2937;48.562;8.022;2024-03-02T02:31:16;3.23;;;2.17;;
5821;SDS011;2937;48.562;8.022;2024-03-02T02:36:08;3.93;;;2.40;;
5821;SDS011;2937;48.562;8.022;2024-03-02T02:41:03;6.57;;;3.37;;
5821;SDS011;2937;48.562;8.022;2024-03-02T02:45:55;3.60;;;2.87;;
5821;SDS011;2937;48.562;8.022;2024-03-02T02:50:48;3.97;;;3.00;;
5821;SDS011;2937;48.562;8.022;2024-03-02T02:55:40;5.33;;;3.40;;
5821;SDS011;2937;48.562;8.022;2024-03-02T03:00:36;3.97;;;3.57;;
5821;SDS011;2937;48.562;8.022;2024-03-02T03:05:28;4.80;;;3.70;;
5821;SDS011;2937;48.562;8.022;2024-03-02T03:10:21;5.60;;;4.40;;
5821;SDS011;2937;48.562;8.022;2024-03-02T03:15:14;7.57;;;4.97;;
5821;SDS011;2937;48.562;8.022;2024-03-02T03:20:09;5.33;;;4.13;;
5821;SDS011;2937;48.562;8.022;2024-03-02T03:25:02;7.37;;;5.43;;
5821;SDS011;2937;48.562;8.022;2024-03-02T03:29:55;8.20;;;5.70;;
5821;SDS011;2937;48.562;8.022;2024-03-02T03:34:48;7.13;;;5.50;;
5821;SDS011;2937;48.562;8.022;2024-03-02T03:39:42;8.00;;;5.80;;
5821;SDS011;2937;48.562;8.022;2024-03-02T03:44:34;8.23;;;5.70;;
5821;SDS011;2937;48.562;8.022;2024-03-02T03:49:27;7.90;;;4.37;;
5821;SDS011;2937;48.562;8.022;2024-03-02T03:54:20;6.37;;;4.70;;
5821;SDS011;2937;48.562;8.022;2024-03-02T03:59:13;9.00;;;5.90;;
5821;SDS011;2937;48.562;8.022;2024-03-02T04:04:06;9.87;;;6.87;;
5821;SDS011;2937;48.562;8.022;2024-03-02T04:08:59;11.63;;;7.50;;
5821;SDS011;2937;48.562;8.022;2024-03-02T04:13:51;10.93;;;7.70;;
5821;SDS011;2937;48.562;8.022;2024-03-02T04:18:48;10.00;;;7.27;;
5821;SDS011;2937;48.562;8.022;2024-03-02T04:23:41;10.77;;;6.73;;
5821;SDS011;2937;48.562;8.022;2024-03-02T04:28:33;8.70;;;6.50;;
5821;SDS011;2937;48.562;8.022;2024-03-02T04:33:26;9.43;;;7.20;;
5821;SDS011;2937;48.562;8.022;2024-03-02T04:38:20;8.23;;;6.30;;
5821;SDS011;2937;48.562;8.022;2024-03-02T04:43:12;8.13;;;6.10;;
5821;SDS011;2937;48.562;8.022;2024-03-02T04:48:07;8.03;;;5.90;;
5821;SDS011;2937;48.562;8.022;2024-03-02T04:53:00;7.03;;;5.53;;
5821;SDS011;2937;48.562;8.022;2024-03-02T04:57:54;9.07;;;6.20;;
5821;SDS011;2937;48.562;8.022;2024-03-02T05:02:47;10.67;;;7.40;;
5821;SDS011;2937;48.562;8.022;2024-03-02T05:07:40;7.57;;;6.00;;
5821;SDS011;2937;48.562;8.022;2024-03-02T05:12:33;10.63;;;6.47;;
5821;SDS011;2937;48.562;8.022;2024-03-02T05:17:49;8.37;;;5.90;;
5821;SDS011;2937;48.562;8.022;2024-03-02T05:22:42;11.30;;;6.90;;
5821;SDS011;2937;48.562;8.022;2024-03-02T05:27:34;8.93;;;5.90;;
5821;SDS011;2937;48.562;8.022;2024-03-02T05:32:27;8.03;;;6.10;;
5821;SDS011;2937;48.562;8.022;2024-03-02T05:37:21;8.70;;;5.43;;
5821;SDS011;2937;48.562;8.022;2024-03-02T05:42:14;8.67;;;6.20;;
5821;SDS011;2937;48.562;8.022;2024-03-02T05:47:10;9.20;;;6.43;;
5821;SDS011;2937;48.562;8.022;2024-03-02T05:52:03;8.23;;;6.13;;
5821;SDS011;2937;48.562;8.022;2024-03-02T05:56:57;10.07;;;6.53;;
5821;SDS011;2937;48.562;8.022;2024-03-02T06:02:07;9.13;;;5.60;;
5821;SDS011;2937;48.562;8.022;2024-03-02T06:07:00;7.93;;;5.37;;
5821;SDS011;2937;48.562;8.022;2024-03-02T06:11:53;6.93;;;5.23;;
5821;SDS011;2937;48.562;8.022;2024-03-02T06:16:47;6.50;;;5.10;;
5821;SDS011;2937;48.562;8.022;2024-03-02T06:21:39;8.33;;;5.50;;
5821;SDS011;2937;48.562;8.022;2024-03-02T06:26:32;6.80;;;5.60;;
5821;SDS011;2937;48.562;8.022;2024-03-02T06:31:25;24.07;;;13.20;;
5821;SDS011;2937;48.562;8.022;2024-03-02T06:36:19;64.87;;;30.63;;
5821;SDS011;2937;48.562;8.022;2024-03-02T06:41:11;54.30;;;25.63;;
5821;SDS011;2937;48.562;8.022;2024-03-02T06:46:04;53.57;;;24.07;;
5821;SDS011;2937;48.562;8.022;2024-03-02T06:51:01;12.70;;;8.37;;
5821;SDS011;2937;48.562;8.022;2024-03-02T06:55:57;11.00;;;6.93;;
5821;SDS011;2937;48.562;8.022;2024-03-02T07:00:51;14.83;;;9.27;;
5821;SDS011;2937;48.562;8.022;2024-03-02T07:05:44;7.00;;;5.97;;
5821;SDS011;2937;48.562;8.022;2024-03-02T07:10:37;8.60;;;5.73;;
5821;SDS011;2937;48.562;8.022;2024-03-02T07:15:31;8.03;;;5.43;;
5821;SDS011;2937;48.562;8.022;2024-03-02T07:20:46;6.97;;;5.13;;
5821;SDS011;2937;48.562;8.022;2024-03-02T07:25:41;5.53;;;4.80;;
5821;SDS011;2937;48.562;8.022;2024-03-02T07:30:37;5.63;;;4.70;;
5821;SDS011;2937;48.562;8.022;2024-03-02T07:35:31;6.37;;;4.97;;
5821;SDS011;2937;48.562;8.022;2024-03-02T07:40:24;8.03;;;5.90;;
5821;SDS011;2937;48.562;8.022;2024-03-02T07:45:16;10.90;;;7.47;;
5821;SDS011;2937;48.562;8.022;2024-03-02T07:50:10;9.27;;;6.90;;
5821;SDS011;2937;48.562;8.022;2024-03-02T07:55:03;8.47;;;6.60;;
5821;SDS011;2937;48.562;8.022;2024-03-02T07:59:56;11.17;;;5.77;;
5821;SDS011;2937;48.562;8.022;2024-03-02T08:04:51;7.00;;;5.60;;
5821;SDS011;2937;48.562;8.022;2024-03-02T08:09:45;7.20;;;5.27;;
5821;SDS011;2937;48.562;8.022;2024-03-02T08:14:37;5.07;;;4.57;;
5821;SDS011;2937;48.562;8.022;2024-03-02T08:19:30;6.00;;;5.10;;
5821;SDS011;2937;48.562;8.022;2024-03-02T08:24:23;7.20;;;5.60;;
5821;SDS011;2937;48.562;8.022;2024-03-02T08:29:17;8.40;;;6.37;;
5821;SDS011;2937;48.562;8.022;2024-03-02T08:34:10;7.23;;;5.30;;
5821;SDS011;2937;48.562;8.022;2024-03-02T08:39:03;6.17;;;5.17;;
5821;SDS011;2937;48.562;8.022;2024-03-02T08:43:58;4.80;;;3.67;;
5821;SDS011;2937;48.562;8.022;2024-03-02T08:48:52;12.63;;;8.93;;
5821;SDS011;2937;48.562;8.022;2024-03-02T08:53:45;12.53;;;7.70;;
5821;SDS011;2937;48.562;8.022;2024-03-02T08:58:38;7.80;;;5.47;;
5821;SDS011;2937;48.562;8.022;2024-03-02T09:03:30;5.30;;;4.40;;
5821;SDS011;2937;48.562;8.022;2024-03-02T09:08:26;6.10;;;4.47;;
5821;SDS011;2937;48.562;8.022;2024-03-02T09:13:18;5.40;;;4.20;;
5821;SDS011;2937;48.562;8.022;2024-03-02T09:18:11;5.67;;;4.40;;
5821;SDS011;2937;48.562;8.022;2024-03-02T09:23:07;6.30;;;4.40;;
5821;SDS011;2937;48.562;8.022;2024-03-02T09:28:01;5.50;;;3.60;;
5821;SDS011;2937;48.562;8.022;2024-03-02T09:32:54;5.83;;;4.20;;
5821;SDS011;2937;48.562;8.022;2024-03-02T09:38:07;4.40;;;4.00;;
5821;SDS011;2937;48.562;8.022;2024-03-02T09:43:01;5.90;;;5.20;;
5821;SDS011;2937;48.562;8.022;2024-03-02T09:47:54;8.50;;;6.90;;
5821;SDS011;2937;48.562;8.022;2024-03-02T09:52:48;7.50;;;6.70;;
5821;SDS011;2937;48.562;8.022;2024-03-02T09:57:41;8.53;;;6.77;;
5821;SDS011;2937;48.562;8.022;2024-03-02T10:02:35;7.57;;;6.40;;
5821;SDS011;2937;48.562;8.022;2024-03-02T10:07:28;7.50;;;6.30;;
5821;SDS011;2937;48.562;8.022;2024-03-02T10:12:20;8.17;;;6.50;;
5821;SDS011;2937;48.562;8.022;2024-03-02T10:17:14;8.33;;;6.90;;
5821;SDS011;2937;48.562;8.022;2024-03-02T10:22:08;7.60;;;6.43;;
5821;SDS011;2937;48.562;8.022;2024-03-02T10:27:01;7.60;;;6.80;;
5821;SDS011;2937;48.562;8.022;2024-03-02T10:31:54;8.70;;;6.40;;
5821;SDS011;2937;48.562;8.022;2024-03-02T10:36:47;7.70;;;6.90;;
5821;SDS011;2937;48.562;8.022;2024-03-02T10:41:41;8.53;;;6.67;;
5821;SDS011;2937;48.562;8.022;2024-03-02T10:46:34;8.87;;;7.53;;
5821;SDS011;2937;48.562;8.022;2024-03-02T10:51:28;8.40;;;6.80;;
5821;SDS011;2937;48.562;8.022;2024-03-02T10:56:27;11.70;;;7.53;;
5821;SDS011;2937;48.562;8.022;2024-03-02T11:01:22;8.37;;;6.97;;
5821;SDS011;2937;48.562;8.022;2024-03-02T11:06:15;8.43;;;5.63;;
5821;SDS011;2937;48.562;8.022;2024-03-02T11:11:11;7.93;;;5.90;;
5821;SDS011;2937;48.562;8.022;2024-03-02T11:16:09;5.77;;;4.63;;
5821;SDS011;2937;48.562;8.022;2024-03-02T11:21:06;6.60;;;5.13;;
5821;SDS011;2937;48.562;8.022;2024-03-02T11:31:06;7.60;;;5.43;;
5821;SDS011;2937;48.562;8.022;2024-03-02T11:35:59;5.13;;;3.80;;
5821;SDS011;2937;48.562;8.022;2024-03-02T11:40:54;4.27;;;3.20;;
5821;SDS011;2937;48.562;8.022;2024-03-02T11:45:47;3.67;;;2.43;;
5821;SDS011;2937;48.562;8.022;2024-03-02T11:50:42;2.90;;;2.20;;
5821;SDS011;2937;48.562;8.022;2024-03-02T11:55:35;2.17;;;1.87;;
5821;SDS011;2937;48.562;8.022;2024-03-02T12:00:30;2.30;;;1.80;;
5821;SDS011;2937;48.562;8.022;2024-03-02T12:05:22;2.17;;;1.80;;
5821;SDS011;2937;48.562;8.022;2024-03-02T12:10:15;2.43;;;1.83;;
5821;SDS011;2937;48.562;8.022;2024-03-02T12:15:08;3.37;;;1.90;;
5821;SDS011;2937;48.562;8.022;2024-03-02T12:20:02;2.53;;;2.00;;
5821;SDS011;2937;48.562;8.022;2024-03-02T12:24:56;3.47;;;2.10;;
5821;SDS011;2937;48.562;8.022;2024-03-02T12:29:49;2.17;;;1.80;;
5821;SDS011;2937;48.562;8.022;2024-03-02T12:34:41;2.23;;;1.77;;
5821;SDS011;2937;48.562;8.022;2024-03-02T12:39:35;2.33;;;1.80;;
5821;SDS011;2937;48.562;8.022;2024-03-02T12:44:28;2.60;;;1.80;;
5821;SDS011;2937;48.562;8.022;2024-03-02T12:49:21;2.13;;;1.63;;
5821;SDS011;2937;48.562;8.022;2024-03-02T12:54:14;2.30;;;1.80;;
5821;SDS011;2937;48.562;8.022;2024-03-02T12:59:09;2.47;;;1.80;;
5821;SDS011;2937;48.562;8.022;2024-03-02T13:04:02;2.73;;;1.90;;
5821;SDS011;2937;48.562;8.022;2024-03-02T13:08:56;2.33;;;1.90;;
5821;SDS011;2937;48.562;8.022;2024-03-02T13:13:48;2.33;;;1.87;;
5821;SDS011;2937;48.562;8.022;2024-03-02T13:18:44;2.17;;;1.80;;
5821;SDS011;2937;48.562;8.022;2024-03-02T13:23:36;2.20;;;1.87;;
5821;SDS011;2937;48.562;8.022;2024-03-02T13:28:29;2.47;;;2.00;;
5821;SDS011;2937;48.562;8.022;2024-03-02T13:33:22;3.47;;;1.90;;
5821;SDS011;2937;48.562;8.022;2024-03-02T13:38:16;2.97;;;1.83;;
5821;SDS011;2937;48.562;8.022;2024-03-02T13:43:08;2.30;;;1.83;;
5821;SDS011;2937;48.562;8.022;2024-03-02T13:48:02;1.70;;;1.47;;
5821;SDS011;2937;48.562;8.022;2024-03-02T13:52:55;2.43;;;1.20;;
5821;SDS011;2937;48.562;8.022;2024-03-02T13:57:49;1.70;;;1.30;;
5821;SDS011;2937;48.562;8.022;2024-03-02T14:02:41;1.40;;;1.10;;
5821;SDS011;2937;48.562;8.022;2024-03-02T14:07:34;2.67;;;1.40;;
5821;SDS011;2937;48.562;8.022;2024-03-02T14:12:27;2.63;;;1.33;;
5821;SDS011;2937;48.562;8.022;2024-03-02T14:17:21;2.67;;;1.40;;
5821;SDS011;2937;48.562;8.022;2024-03-02T14:22:13;2.20;;;1.57;;
5821;SDS011;2937;48.562;8.022;2024-03-02T14:27:09;1.63;;;1.37;;
5821;SDS011;2937;48.562;8.022;2024-03-02T14:32:18;4.27;;;1.27;;
5821;SDS011;2937;48.562;8.022;2024-03-02T14:37:12;3.87;;;1.30;;
5821;SDS011;2937;48.562;8.022;2024-03-02T14:42:05;1.90;;;1.40;;
5821;SDS011;2937;48.562;8.022;2024-03-02T14:46:58;1.60;;;1.20;;
5821;SDS011;2937;48.562;8.022;2024-03-02T14:51:50;2.37;;;1.50;;
5821;SDS011;2937;48.562;8.022;2024-03-02T14:56:45;1.90;;;1.50;;
5821;SDS011;2937;48.562;8.022;2024-03-02T15:01:38;3.30;;;1.40;;
5821;SDS011;2937;48.562;8.022;2024-03-02T15:06:30;1.70;;;1.43;;
5821;SDS011;2937;48.562;8.022;2024-03-02T15:11:23;1.77;;;1.37;;
5821;SDS011;2937;48.562;8.022;2024-03-02T15:16:17;1.53;;;1.43;;
5821;SDS011;2937;48.562;8.022;2024-03-02T15:21:10;2.00;;;1.33;;
5821;SDS011;2937;48.562;8.022;2024-03-02T15:26:03;1.93;;;1.40;;
5821;SDS011;2937;48.562;8.022;2024-03-02T15:30:55;1.77;;;1.40;;
5821;SDS011;2937;48.562;8.022;2024-03-02T15:35:49;2.53;;;1.50;;
5821;SDS011;2937;48.562;8.022;2024-03-02T15:40:42;4.80;;;1.57;;
5821;SDS011;2937;48.562;8.022;2024-03-02T15:45:34;8.13;;;6.00;;
5821;SDS011;2937;48.562;8.022;2024-03-02T15:50:27;9.17;;;6.80;;
5821;SDS011;2937;48.562;8.022;2024-03-02T15:55:21;10.97;;;8.37;;
5821;SDS011;2937;48.562;8.022;2024-03-02T16:00:14;9.80;;;6.73;;
5821;SDS011;2937;48.562;8.022;2024-03-02T16:05:07;6.00;;;5.00;;
5821;SDS011;2937;48.562;8.022;2024-03-02T16:09:59;5.17;;;4.30;;
5821;SDS011;2937;48.562;8.022;2024-03-02T16:14:57;5.47;;;4.47;;
5821;SDS011;2937;48.562;8.022;2024-03-02T16:19:50;7.20;;;5.23;;
5821;SDS011;2937;48.562;8.022;2024-03-02T16:24:42;12.00;;;8.27;;
5821;SDS011;2937;48.562;8.022;2024-03-02T16:29:35;19.67;;;14.07;;
5821;SDS011;2937;48.562;8.022;2024-03-02T16:34:30;19.03;;;12.10;;
5821;SDS011;2937;48.562;8.022;2024-03-02T16:39:22;16.73;;;10.10;;
5821;SDS011;2937;48.562;8.022;2024-03-02T16:44:16;10.17;;;7.40;;
5821;SDS011;2937;48.562;8.022;2024-03-02T16:49:09;6.37;;;4.63;;
5821;SDS011;2937;48.562;8.022;2024-03-02T16:54:03;3.63;;;3.27;;
5821;SDS011;2937;48.562;8.022;2024-03-02T16:58:55;4.80;;;2.33;;
5821;SDS011;2937;48.562;8.022;2024-03-02T17:03:48;5.20;;;3.00;;
5821;SDS011;2937;48.562;8.022;2024-03-02T17:08:40;6.10;;;4.87;;
5821;SDS011;2937;48.562;8.022;2024-03-02T17:13:34;6.80;;;5.13;;
5821;SDS011;2937;48.562;8.022;2024-03-02T17:18:27;8.47;;;6.50;;
5821;SDS011;2937;48.562;8.022;2024-03-02T17:23:19;11.00;;;7.97;;
5821;SDS011;2937;48.562;8.022;2024-03-02T17:28:18;11.60;;;8.20;;
5821;SDS011;2937;48.562;8.022;2024-03-02T17:33:13;12.40;;;8.00;;
5821;SDS011;2937;48.562;8.022;2024-03-02T17:38:05;10.40;;;7.40;;
5821;SDS011;2937;48.562;8.022;2024-03-02T17:42:58;6.77;;;3.97;;
5821;SDS011;2937;48.562;8.022;2024-03-02T17:47:50;6.37;;;4.10;;
5821;SDS011;2937;48.562;8.022;2024-03-02T17:52:44;12.30;;;5.70;;
5821;SDS011;2937;48.562;8.022;2024-03-02T17:57:37;31.93;;;17.73;;
5821;SDS011;2937;48.562;8.022;2024-03-02T18:02:30;21.33;;;13.73;;
5821;SDS011;2937;48.562;8.022;2024-03-02T18:07:24;32.00;;;21.00;;
5821;SDS011;2937;48.562;8.022;2024-03-02T18:12:18;28.10;;;16.87;;
5821;SDS011;2937;48.562;8.022;2024-03-02T18:17:11;36.70;;;24.60;;
5821;SDS011;2937;48.562;8.022;2024-03-02T18:22:04;26.33;;;16.73;;
5821;SDS011;2937;48.562;8.022;2024-03-02T18:26:57;15.13;;;9.07;;
5821;SDS011;2937;48.562;8.022;2024-03-02T18:31:52;19.93;;;10.80;;
5821;SDS011;2937;48.562;8.022;2024-03-02T18:36:45;22.23;;;13.13;;
5821;SDS011;2937;48.562;8.022;2024-03-02T18:41:37;15.70;;;8.30;;
5821;SDS011;2937;48.562;8.022;2024-03-02T18:46:30;14.30;;;8.50;;
5821;SDS011;2937;48.562;8.022;2024-03-02T18:51:24;15.70;;;9.33;;
5821;SDS011;2937;48.562;8.022;2024-03-02T18:56:17;16.77;;;9.83;;
5821;SDS011;2937;48.562;8.022;2024-03-02T19:01:09;20.47;;;9.50;;
5821;SDS011;2937;48.562;8.022;2024-03-02T19:06:02;14.20;;;9.00;;
5821;SDS011;2937;48.562;8.022;2024-03-02T19:10:57;20.10;;;11.20;;
5821;SDS011;2937;48.562;8.022;2024-03-02T19:15:51;19.77;;;12.40;;
5821;SDS011;2937;48.562;8.022;2024-03-02T19:20:43;19.77;;;11.50;;
5821;SDS011;2937;48.562;8.022;2024-03-02T19:25:36;19.97;;;12.30;;
5821;SDS011;2937;48.562;8.022;2024-03-02T19:30:30;18.13;;;11.87;;
5821;SDS011;2937;48.562;8.022;2024-03-02T19:35:23;19.40;;;11.73;;
5821;SDS011;2937;48.562;8.022;2024-03-02T19:40:17;19.27;;;10.50;;
5821;SDS011;2937;48.562;8.022;2024-03-02T19:45:10;11.70;;;8.60;;
5821;SDS011;2937;48.562;8.022;2024-03-02T19:50:04;20.87;;;11.73;;
5821;SDS011;2937;48.562;8.022;2024-03-02T19:54:57;34.73;;;19.10;;
5821;SDS011;2937;48.562;8.022;2024-03-02T19:59:50;37.77;;;22.03;;
5821;SDS011;2937;48.562;8.022;2024-03-02T20:04:43;35.80;;;18.90;;
5821;SDS011;2937;48.562;8.022;2024-03-02T20:09:38;22.23;;;13.73;;
5821;SDS011;2937;48.562;8.022;2024-03-02T20:14:31;17.00;;;10.53;;
5821;SDS011;2937;48.562;8.022;2024-03-02T20:19:24;12.73;;;7.93;;
5821;SDS011;2937;48.562;8.022;2024-03-02T20:24:17;16.57;;;10.70;;
5821;SDS011;2937;48.562;8.022;2024-03-02T20:29:13;16.13;;;11.03;;
5821;SDS011;2937;48.562;8.022;2024-03-02T20:34:06;18.40;;;10.83;;
5821;SDS011;2937;48.562;8.022;2024-03-02T20:38:59;13.27;;;9.70;;
5821;SDS011;2937;48.562;8.022;2024-03-02T20:43:51;17.13;;;10.10;;
5821;SDS011;2937;48.562;8.022;2024-03-02T20:48:45;15.03;;;9.47;;
5821;SDS011;2937;48.562;8.022;2024-03-02T20:53:40;11.27;;;7.40;;
5821;SDS011;2937;48.562;8.022;2024-03-02T20:58:33;9.00;;;6.30;;
5821;SDS011;2937;48.562;8.022;2024-03-02T21:03:26;8.80;;;6.27;;
5821;SDS011;2937;48.562;8.022;2024-03-02T21:08:20;9.47;;;6.70;;
5821;SDS011;2937;48.562;8.022;2024-03-02T21:13:12;10.73;;;7.90;;
5821;SDS011;2937;48.562;8.022;2024-03-02T21:18:05;9.23;;;6.53;;
5821;SDS011;2937;48.562;8.022;2024-03-02T21:22:58;9.70;;;7.40;;
5821;SDS011;2937;48.562;8.022;2024-03-02T21:27:52;14.63;;;10.00;;
5821;SDS011;2937;48.562;8.022;2024-03-02T21:32:44;11.17;;;7.27;;
5821;SDS011;2937;48.562;8.022;2024-03-02T21:37:39;12.67;;;8.23;;
5821;SDS011;2937;48.562;8.022;2024-03-02T21:42:32;9.67;;;7.00;;
5821;SDS011;2937;48.562;8.022;2024-03-02T21:47:26;9.40;;;7.20;;
5821;SDS011;2937;48.562;8.022;2024-03-02T21:52:19;10.17;;;7.27;;
5821;SDS011;2937;48.562;8.022;2024-03-02T21:57:11;11.47;;;7.53;;
5821;SDS011;2937;48.562;8.022;2024-03-02T22:02:10;11.63;;;8.53;;
5821;SDS011;2937;48.562;8.022;2024-03-02T22:07:04;11.23;;;7.33;;
5821;SDS011;2937;48.562;8.022;2024-03-02T22:11:57;13.57;;;7.53;;
5821;SDS011;2937;48.562;8.022;2024-03-02T22:16:50;10.57;;;7.50;;
5821;SDS011;2937;48.562;8.022;2024-03-02T22:21:43;12.10;;;8.60;;
5821;SDS011;2937;48.562;8.022;2024-03-02T22:26:37;12.57;;;9.20;;
5821;SDS011;2937;48.562;8.022;2024-03-02T22:31:29;9.30;;;7.43;;
5821;SDS011;2937;48.562;8.022;2024-03-02T22:36:22;13.63;;;8.90;;
5821;SDS011;2937;48.562;8.022;2024-03-02T22:41:15;13.80;;;9.27;;
5821;SDS011;2937;48.562;8.022;2024-03-02T22:46:09;12.63;;;9.10;;
5821;SDS011;2937;48.562;8.022;2024-03-02T22:51:04;11.73;;;8.13;;
5821;SDS011;2937;48.562;8.022;2024-03-02T22:55:56;13.07;;;8.67;;
5821;SDS011;2937;48.562;8.022;2024-03-02T23:00:50;10.10;;;7.47;;
5821;SDS011;2937;48.562;8.022;2024-03-02T23:05:50;9.97;;;6.90;;
5821;SDS011;2937;48.562;8.022;2024-03-02T23:10:43;9.60;;;6.93;;
5821;SDS011;2937;48.562;8.022;2024-03-02T23:15:35;11.67;;;7.33;;
5821;SDS011;2937;48.562;8.022;2024-03-02T23:20:28;11.10;;;8.10;;
5821;SDS011;2937;48.562;8.022;2024-03-02T23:25:22;9.17;;;7.10;;
5821;SDS011;2937;48.562;8.022;2024-03-02T23:30:14;13.20;;;8.63;;
5821;SDS011;2937;48.562;8.022;2024-03-02T23:35:09;12.83;;;8.03;;
5821;SDS011;2937;48.562;8.022;2024-03-02T23:40:02;11.50;;;8.30;;
5821;SDS011;2937;48.562;8.022;2024-03-02T23:45:22;12.03;;;8.67;;
5821;SDS011;2937;48.562;8.022;2024-03-02T23:50:15;16.10;;;10.67;;
5821;SDS011;2937;48.562;8.022;2024-03-02T23:55:08;15.53;;;11.10;;
